METAR Data
IDs: Format: Raw Decoded Include TAF

Data at: 0102 UTC 06 Dec 2019

KGRD 060056Z AUTO 00000KT 10SM CLR 08/M02 A3018 RMK AO2 SLP220 T00781017
KGRD 052356Z AUTO 00000KT 10SM CLR 09/M02 A3016 RMK AO2 SLP215 T00891017 10178 20089 53015
KGRD 052256Z AUTO 00000KT 10SM CLR 11/M02 A3015 RMK AO2 SLP208 T01111022
KGRD 052156Z AUTO 24004KT 10SM CLR 16/M03 A3012 RMK AO2 SLP200 T01561033
KGRD 052056Z AUTO 25004KT 10SM CLR 17/M05 A3012 RMK AO2 SLP196 T01721050 53001
KGRD 051956Z AUTO 30003KT 10SM CLR 18/M05 A3010 RMK AO2 SLP190 T01781050
KGRD 051856Z AUTO VRB04KT 10SM CLR 17/M06 A3010 RMK AO2 SLP190 T01721056
KGRD 051756Z AUTO VRB04KT 10SM CLR 16/M05 A3011 RMK AO2 SLP195 T01611050 10167 20011 58003
KGRD 051656Z AUTO 32004KT 10SM CLR 16/M04 A3013 RMK AO2 SLP201 T01561039
KGRD 051556Z AUTO 31003KT 10SM CLR 14/M02 A3014 RMK AO2 SLP203 T01391022
KGRD 051456Z AUTO 25004KT 10SM CLR 11/M01 A3012 RMK AO2 SLP200 T01111006 53032
KGRD 051356Z AUTO 25005KT 10SM CLR 09/M01 A3009 RMK AO2 SLP188 T00891006
KGRD 051256Z AUTO 24005KT 10SM CLR 02/M01 A3006 RMK AO2 SLP179 T00221011
KGRD 051156Z AUTO 21003KT 10SM CLR 01/M02 A3003 RMK AO2 SLP168 T00111022 10094 20011 53025
KGRD 051056Z AUTO 00000KT 10SM CLR 07/M02 A3000 RMK AO2 SLP158 T00671022
KGRD 050956Z AUTO 25004KT 10SM CLR 08/M02 A2997 RMK AO2 SLP148 T00781022
KGRD 050856Z AUTO 26006KT 10SM CLR 08/M02 A2995 RMK AO2 SLP140 T00831022 53018
KGRD 050756Z AUTO 25007KT 10SM CLR 09/M02 A2993 RMK AO2 SLP133 T00941017
KGRD 050656Z AUTO 25008KT 10SM CLR 09/M02 A2991 RMK AO2 SLP126 T00941017
KGRD 050556Z AUTO 25009G16KT 10SM CLR 09/M02 A2990 RMK AO2 SLP122 T00941017 10122 20089 53003
KGRD 050456Z AUTO 25008KT 10SM CLR 09/M01 A2990 RMK AO2 SLP124 T00891011 401561028
KGRD 050356Z AUTO 26009KT 10SM CLR 09/M02 A2989 RMK AO2 SLP120 T00941017
KGRD 050256Z AUTO 25008KT 10SM CLR 09/M02 A2989 RMK AO2 SLP121 T00941017 51015
KGRD 050156Z AUTO 26008KT 10SM CLR 10/M04 A2988 RMK AO2 SLP118 T01001039
KGRD 050056Z AUTO 26008KT 10SM CLR 12/M05 A2986 RMK AO2 SLP112 T01171050
KGRD 042356Z AUTO 27009KT 10SM CLR 12/M05 A2984 RMK AO2 SLP107 T01221050 10156 20117 51021
KGRD 042256Z AUTO 25006KT 10SM CLR 13/M04 A2983 RMK AO2 SLP102 T01281044
KGRD 042156Z AUTO 25008KT 10SM CLR 14/M04 A2980 RMK AO2 SLP090 T01441039
KGRD 042056Z AUTO 25010G18KT 10SM CLR 15/00 A2978 RMK AO2 SLP084 T01500000 56006
KGRD 041956Z AUTO 26009KT 240V300 10SM CLR 15/M01 A2978 RMK AO2 SLP084 T01501006
KGRD 041856Z AUTO 25011G23KT 10SM CLR 14/M01 A2979 RMK AO2 SLP087 T01441011
KGRD 041756Z AUTO 24012KT 10SM CLR 14/00 A2980 RMK AO2 SLP090 T01440000 10144 21028 58015
KGRD 041656Z AUTO 26010KT 10SM CLR 12/M01 A2982 RMK AO2 SLP097 T01221006
KGRD 041556Z AUTO 24008KT 10SM CLR 11/00 A2984 RMK AO2 SLP105 T01110000
KGRD 041456Z AUTO VRB05KT 10SM CLR 08/M01 A2984 RMK AO2 SLP106 T00781006 51009
KGRD 041356Z AUTO 25007KT 10SM CLR 04/M01 A2984 RMK AO2 SLP107 T00391011